YXMK weather

Macksville Park Helicopter Landing Site
Macksville, New South Wales, Australia

Public forecast

Using degrees Celsius for public forecast. Weather courtesy of forecast.io.

METAR (pilot weather report)

Report is more than 2 hours old.

Closest report is Port Macquarie Airport, 43.7 nm (80.9 km) S. Retrieved 2019/02/19 09:28 UTC (6 hours ago):

YPMQ 190928Z AUTO 31004KT 220V010 9999 // NCD 25/21 Q1007

TAF (pilot weather forecast)

Closest forecast is Taree Airport, 73.8 nm (136.6 km) SSW. Retrieved 2019/02/19 14:03 UTC (58 minutes ago):

TAF YTRE 191244Z 1914/2002 20005KT 9999 -SHRA SCT010 BKN018 FM192000 07005KT 9999 BKN025